sensor_id;sensor_type;location;lat;lon;timestamp;P1;P2;P0
53698;PMS7003;39591;53.952;27.612;2022-08-01T00:03:46;9.2;8.6;7.4
53698;PMS7003;39591;53.952;27.612;2022-08-01T00:08:46;9.6;9;7.6
53698;PMS7003;39591;53.952;27.612;2022-08-01T00:13:46;8.4;8;7
53698;PMS7003;39591;53.952;27.612;2022-08-01T00:18:46;9.4;8.6;7.4
53698;PMS7003;39591;53.952;27.612;2022-08-01T00:23:46;9.6;8.2;6.8
53698;PMS7003;39591;53.952;27.612;2022-08-01T00:28:46;9.6;8.4;7.2
53698;PMS7003;39591;53.952;27.612;2022-08-01T00:33:46;8.4;7.6;7
53698;PMS7003;39591;53.952;27.612;2022-08-01T00:38:46;9.2;7;6.4
53698;PMS7003;39591;53.952;27.612;2022-08-01T00:43:46;8.8;7.8;7.2
53698;PMS7003;39591;53.952;27.612;2022-08-01T00:48:46;9.4;8;6.8
53698;PMS7003;39591;53.952;27.612;2022-08-01T00:53:46;7.6;7.4;6.2
53698;PMS7003;39591;53.952;27.612;2022-08-01T00:58:46;8.6;8.2;7
53698;PMS7003;39591;53.952;27.612;2022-08-01T01:03:46;8.6;7.8;6.6
53698;PMS7003;39591;53.952;27.612;2022-08-01T01:08:46;7.2;6.6;5.8
53698;PMS7003;39591;53.952;27.612;2022-08-01T01:13:47;8.8;8;6.8
53698;PMS7003;39591;53.952;27.612;2022-08-01T01:18:47;7.8;6.6;5.8
53698;PMS7003;39591;53.952;27.612;2022-08-01T01:23:51;8.6;7.6;6.8
53698;PMS7003;39591;53.952;27.612;2022-08-01T01:29:04;8;7.2;6.4
53698;PMS7003;39591;53.952;27.612;2022-08-01T01:33:46;7.8;7.2;6.4
53698;PMS7003;39591;53.952;27.612;2022-08-01T01:38:46;7.6;7.4;6.4
53698;PMS7003;39591;53.952;27.612;2022-08-01T01:43:46;8.2;7.8;7
53698;PMS7003;39591;53.952;27.612;2022-08-01T01:48:46;8.4;7.4;6.4
53698;PMS7003;39591;53.952;27.612;2022-08-01T01:53:46;8.4;7.6;6.6
53698;PMS7003;39591;53.952;27.612;2022-08-01T01:58:48;9.2;8;6.8
53698;PMS7003;39591;53.952;27.612;2022-08-01T02:03:46;8.4;7.6;6.4
53698;PMS7003;39591;53.952;27.612;2022-08-01T02:08:46;8.6;7.8;6.8
53698;PMS7003;39591;53.952;27.612;2022-08-01T02:14:02;8.6;8;7
53698;PMS7003;39591;53.952;27.612;2022-08-01T02:18:46;8;7.8;6.6
53698;PMS7003;39591;53.952;27.612;2022-08-01T02:23:46;8.6;7.8;7.2
53698;PMS7003;39591;53.952;27.612;2022-08-01T02:28:49;7.2;6.8;5.8
53698;PMS7003;39591;53.952;27.612;2022-08-01T02:33:47;8.4;7.8;6.8
53698;PMS7003;39591;53.952;27.612;2022-08-01T02:38:46;7.2;7;6.2
53698;PMS7003;39591;53.952;27.612;2022-08-01T02:43:47;9.4;8.2;6.8
53698;PMS7003;39591;53.952;27.612;2022-08-01T02:48:46;8;7.4;6.6
53698;PMS7003;39591;53.952;27.612;2022-08-01T02:53:46;7.4;7.4;6.2
53698;PMS7003;39591;53.952;27.612;2022-08-01T02:58:46;9.5;7.5;6.3
53698;PMS7003;39591;53.952;27.612;2022-08-01T03:03:46;8.6;7.4;6.6
53698;PMS7003;39591;53.952;27.612;2022-08-01T03:08:46;7;6.4;5.4
53698;PMS7003;39591;53.952;27.612;2022-08-01T03:13:46;8.4;7.6;6.4
53698;PMS7003;39591;53.952;27.612;2022-08-01T03:18:46;7.8;7;6.2
53698;PMS7003;39591;53.952;27.612;2022-08-01T03:23:46;7.4;6.4;5.8
53698;PMS7003;39591;53.952;27.612;2022-08-01T03:28:46;9;8;6.8
53698;PMS7003;39591;53.952;27.612;2022-08-01T03:33:46;8.6;8;6.8
53698;PMS7003;39591;53.952;27.612;2022-08-01T03:38:46;9.4;8.2;7
53698;PMS7003;39591;53.952;27.612;2022-08-01T03:43:48;9.6;8.4;6.8
53698;PMS7003;39591;53.952;27.612;2022-08-01T03:48:47;8.8;8.2;6.8
53698;PMS7003;39591;53.952;27.612;2022-08-01T03:53:46;10.8;10;8.4
53698;PMS7003;39591;53.952;27.612;2022-08-01T03:58:46;10.2;9.8;8.2
53698;PMS7003;39591;53.952;27.612;2022-08-01T04:03:46;11.6;9.8;8.2
53698;PMS7003;39591;53.952;27.612;2022-08-01T04:08:46;11.2;10.2;8.2
53698;PMS7003;39591;53.952;27.612;2022-08-01T04:13:46;10.2;9.6;8
53698;PMS7003;39591;53.952;27.612;2022-08-01T04:18:46;11;9.8;8.4
53698;PMS7003;39591;53.952;27.612;2022-08-01T04:23:46;8.2;8.2;6.8
53698;PMS7003;39591;53.952;27.612;2022-08-01T04:28:46;8.2;8.2;7.2
53698;PMS7003;39591;53.952;27.612;2022-08-01T04:33:48;9;8;7
53698;PMS7003;39591;53.952;27.612;2022-08-01T04:38:46;7.4;7.2;6
53698;PMS7003;39591;53.952;27.612;2022-08-01T04:43:46;8.8;8.2;6.8
53698;PMS7003;39591;53.952;27.612;2022-08-01T04:48:46;7.8;7.4;6.2
53698;PMS7003;39591;53.952;27.612;2022-08-01T04:53:46;7.6;7.2;6.2
53698;PMS7003;39591;53.952;27.612;2022-08-01T04:58:46;9;8.2;7
53698;PMS7003;39591;53.952;27.612;2022-08-01T05:03:46;13.8;11.4;9.8
53698;PMS7003;39591;53.952;27.612;2022-08-01T05:08:46;12.2;11.6;10
53698;PMS7003;39591;53.952;27.612;2022-08-01T05:13:46;9.8;9;7.4
53698;PMS7003;39591;53.952;27.612;2022-08-01T05:18:46;10.4;9.2;7.6
53698;PMS7003;39591;53.952;27.612;2022-08-01T05:23:46;9.2;8.8;7
53698;PMS7003;39591;53.952;27.612;2022-08-01T05:28:46;8.8;8.6;7.6
53698;PMS7003;39591;53.952;27.612;2022-08-01T05:33:46;11.8;11;9
53698;PMS7003;39591;53.952;27.612;2022-08-01T05:38:46;10.4;9.2;8
53698;PMS7003;39591;53.952;27.612;2022-08-01T05:43:46;13.6;11.4;10
53698;PMS7003;39591;53.952;27.612;2022-08-01T05:48:46;10.4;10.2;9.2
53698;PMS7003;39591;53.952;27.612;2022-08-01T05:53:46;12.2;10.4;8.8
53698;PMS7003;39591;53.952;27.612;2022-08-01T05:58:46;12.4;11.8;9.4
53698;PMS7003;39591;53.952;27.612;2022-08-01T06:03:46;12.2;11.6;9.4
53698;PMS7003;39591;53.952;27.612;2022-08-01T06:08:46;11.8;10.8;9
53698;PMS7003;39591;53.952;27.612;2022-08-01T06:13:46;13.4;12;10
53698;PMS7003;39591;53.952;27.612;2022-08-01T06:18:46;13.2;11.8;9.4
53698;PMS7003;39591;53.952;27.612;2022-08-01T06:23:46;12.8;11.6;10
53698;PMS7003;39591;53.952;27.612;2022-08-01T06:28:46;14.4;12;10.2
53698;PMS7003;39591;53.952;27.612;2022-08-01T06:33:46;16.6;15.4;11.8
53698;PMS7003;39591;53.952;27.612;2022-08-01T06:38:46;14.6;13.2;10.8
53698;PMS7003;39591;53.952;27.612;2022-08-01T06:43:46;15.8;13.6;11.4
53698;PMS7003;39591;53.952;27.612;2022-08-01T06:48:46;19.2;16.4;13.4
53698;PMS7003;39591;53.952;27.612;2022-08-01T06:53:46;21.6;17.6;13.6
53698;PMS7003;39591;53.952;27.612;2022-08-01T06:58:47;21.8;19.8;15.4
53698;PMS7003;39591;53.952;27.612;2022-08-01T07:03:46;23.4;20;16.6
53698;PMS7003;39591;53.952;27.612;2022-08-01T07:08:46;18.6;17.4;13.6
53698;PMS7003;39591;53.952;27.612;2022-08-01T07:13:46;17.8;15.6;12.8
53698;PMS7003;39591;53.952;27.612;2022-08-01T07:18:46;15.6;15;12.2
53698;PMS7003;39591;53.952;27.612;2022-08-01T07:23:46;16.4;16.2;13.2
53698;PMS7003;39591;53.952;27.612;2022-08-01T07:28:46;17.4;16.2;13
53698;PMS7003;39591;53.952;27.612;2022-08-01T07:33:46;16.8;15;12.2
53698;PMS7003;39591;53.952;27.612;2022-08-01T07:38:46;18;16.4;14
53698;PMS7003;39591;53.952;27.612;2022-08-01T07:43:46;19.2;17;13.4
53698;PMS7003;39591;53.952;27.612;2022-08-01T07:48:46;17;15.2;12.6
53698;PMS7003;39591;53.952;27.612;2022-08-01T07:53:46;18.6;17.2;14
53698;PMS7003;39591;53.952;27.612;2022-08-01T07:58:46;16.4;15.4;12.2
53698;PMS7003;39591;53.952;27.612;2022-08-01T08:03:46;15.6;14.6;12
53698;PMS7003;39591;53.952;27.612;2022-08-01T08:08:46;15.4;14.6;12.2
53698;PMS7003;39591;53.952;27.612;2022-08-01T08:13:46;15.8;14.4;11.8
53698;PMS7003;39591;53.952;27.612;2022-08-01T08:18:46;18.8;15;12
53698;PMS7003;39591;53.952;27.612;2022-08-01T08:23:46;16.6;14.8;11.8
53698;PMS7003;39591;53.952;27.612;2022-08-01T08:28:46;16.6;16.2;12.8
53698;PMS7003;39591;53.952;27.612;2022-08-01T08:33:46;14.4;13.6;11.4
53698;PMS7003;39591;53.952;27.612;2022-08-01T08:38:46;15.6;15;12.6
53698;PMS7003;39591;53.952;27.612;2022-08-01T08:43:46;15.4;14.8;12.2
53698;PMS7003;39591;53.952;27.612;2022-08-01T08:48:46;14.4;14;11
53698;PMS7003;39591;53.952;27.612;2022-08-01T08:53:46;14.8;13.8;11.8
53698;PMS7003;39591;53.952;27.612;2022-08-01T08:58:46;14.2;13.8;11
53698;PMS7003;39591;53.952;27.612;2022-08-01T09:03:46;12.6;10.8;9.6
53698;PMS7003;39591;53.952;27.612;2022-08-01T09:08:46;13.2;11.8;9
53698;PMS7003;39591;53.952;27.612;2022-08-01T09:14:05;10.8;10.2;8.6
53698;PMS7003;39591;53.952;27.612;2022-08-01T09:18:46;11.2;10.4;8
53698;PMS7003;39591;53.952;27.612;2022-08-01T09:23:48;10;9.6;8.4
53698;PMS7003;39591;53.952;27.612;2022-08-01T09:28:46;10;9.2;7.4
53698;PMS7003;39591;53.952;27.612;2022-08-01T09:33:57;11.4;11.2;9.2
53698;PMS7003;39591;53.952;27.612;2022-08-01T09:38:46;9.4;8.6;8
53698;PMS7003;39591;53.952;27.612;2022-08-01T09:43:47;11.2;10.4;9
53698;PMS7003;39591;53.952;27.612;2022-08-01T09:49:26;9.6;8.8;8
53698;PMS7003;39591;53.952;27.612;2022-08-01T09:53:47;9;8.4;7.6
53698;PMS7003;39591;53.952;27.612;2022-08-01T09:59:01;9.2;8;7.6
53698;PMS7003;39591;53.952;27.612;2022-08-01T10:03:46;10.6;9.4;7.8
53698;PMS7003;39591;53.952;27.612;2022-08-01T10:08:46;9.8;9.4;8.2
53698;PMS7003;39591;53.952;27.612;2022-08-01T10:13:46;9.8;9;8.2
53698;PMS7003;39591;53.952;27.612;2022-08-01T10:18:46;10;9.2;8
53698;PMS7003;39591;53.952;27.612;2022-08-01T10:23:46;8.2;8;7
53698;PMS7003;39591;53.952;27.612;2022-08-01T10:28:46;9.8;8.8;7.8
53698;PMS7003;39591;53.952;27.612;2022-08-01T10:33:46;9.4;8.6;7.6
53698;PMS7003;39591;53.952;27.612;2022-08-01T10:38:46;9.4;8.8;8
53698;PMS7003;39591;53.952;27.612;2022-08-01T10:43:46;9.2;9.2;7.4
53698;PMS7003;39591;53.952;27.612;2022-08-01T10:48:50;9.4;8.8;7.4
53698;PMS7003;39591;53.952;27.612;2022-08-01T10:53:47;12;11;8.8
53698;PMS7003;39591;53.952;27.612;2022-08-01T10:58:46;10.6;9.6;8.6
53698;PMS7003;39591;53.952;27.612;2022-08-01T11:04:17;9.4;8.2;7.4
53698;PMS7003;39591;53.952;27.612;2022-08-01T11:08:53;9.6;8.6;8
53698;PMS7003;39591;53.952;27.612;2022-08-01T11:14:02;9.8;9;7.8
53698;PMS7003;39591;53.952;27.612;2022-08-01T11:18:49;8.6;8.2;7.4
53698;PMS7003;39591;53.952;27.612;2022-08-01T11:23:48;9.6;8.8;7.4
53698;PMS7003;39591;53.952;27.612;2022-08-01T11:28:48;7.8;7.8;6.8
53698;PMS7003;39591;53.952;27.612;2022-08-01T11:33:47;8.6;8;7.4
53698;PMS7003;39591;53.952;27.612;2022-08-01T11:38:47;15.6;14.4;12
53698;PMS7003;39591;53.952;27.612;2022-08-01T11:44:02;10;9.6;8.6
53698;PMS7003;39591;53.952;27.612;2022-08-01T11:48:46;10;9.2;7.8
53698;PMS7003;39591;53.952;27.612;2022-08-01T11:53:46;10.8;9.8;8.2
53698;PMS7003;39591;53.952;27.612;2022-08-01T11:58:46;10;8.2;7.4
53698;PMS7003;39591;53.952;27.612;2022-08-01T12:03:46;8;7.6;6.8
53698;PMS7003;39591;53.952;27.612;2022-08-01T12:08:46;9.2;8.8;7.4
53698;PMS7003;39591;53.952;27.612;2022-08-01T12:13:46;8.8;8.6;7.4
53698;PMS7003;39591;53.952;27.612;2022-08-01T12:18:46;8.8;8.4;7
53698;PMS7003;39591;53.952;27.612;2022-08-01T12:23:46;9.2;8.2;7
53698;PMS7003;39591;53.952;27.612;2022-08-01T12:28:46;9.6;9.4;8.2
53698;PMS7003;39591;53.952;27.612;2022-08-01T12:33:46;9;8.8;7.4
53698;PMS7003;39591;53.952;27.612;2022-08-01T12:38:51;10.8;9.2;8.4
53698;PMS7003;39591;53.952;27.612;2022-08-01T12:43:46;10;9.8;8.2
53698;PMS7003;39591;53.952;27.612;2022-08-01T12:48:46;9.6;9.6;7.6
53698;PMS7003;39591;53.952;27.612;2022-08-01T12:53:46;10.2;9.4;8.4
53698;PMS7003;39591;53.952;27.612;2022-08-01T12:58:46;9.6;9.2;8
53698;PMS7003;39591;53.952;27.612;2022-08-01T13:04:02;10.6;8.8;7.2
53698;PMS7003;39591;53.952;27.612;2022-08-01T13:08:46;9.2;9;8
53698;PMS7003;39591;53.952;27.612;2022-08-01T13:13:47;9;8.8;7.8
53698;PMS7003;39591;53.952;27.612;2022-08-01T13:18:49;9.2;9;7.8
53698;PMS7003;39591;53.952;27.612;2022-08-01T13:24:22;10.6;9.4;8
53698;PMS7003;39591;53.952;27.612;2022-08-01T13:28:46;10.2;9.4;7.8
53698;PMS7003;39591;53.952;27.612;2022-08-01T13:33:46;10.2;9.6;7.6
53698;PMS7003;39591;53.952;27.612;2022-08-01T13:38:46;9;8.6;8
53698;PMS7003;39591;53.952;27.612;2022-08-01T13:43:46;11.2;10.8;9
53698;PMS7003;39591;53.952;27.612;2022-08-01T13:48:46;8.6;7.8;7.2
53698;PMS7003;39591;53.952;27.612;2022-08-01T13:53:46;9;8.8;7.6
53698;PMS7003;39591;53.952;27.612;2022-08-01T13:58:46;9.4;8.8;8.2
53698;PMS7003;39591;53.952;27.612;2022-08-01T14:03:46;9;9;7.8
53698;PMS7003;39591;53.952;27.612;2022-08-01T14:08:46;9.8;9.2;8
53698;PMS7003;39591;53.952;27.612;2022-08-01T14:13:46;9.6;9.4;8.2
53698;PMS7003;39591;53.952;27.612;2022-08-01T14:18:46;9.8;9;8.2
53698;PMS7003;39591;53.952;27.612;2022-08-01T14:23:46;12.6;10.2;8.6
53698;PMS7003;39591;53.952;27.612;2022-08-01T14:28:46;11;9.4;8.2
53698;PMS7003;39591;53.952;27.612;2022-08-01T14:33:46;8.3;8;7.3
53698;PMS7003;39591;53.952;27.612;2022-08-01T14:38:46;8.4;8;7
53698;PMS7003;39591;53.952;27.612;2022-08-01T14:43:46;10;9.2;8
53698;PMS7003;39591;53.952;27.612;2022-08-01T14:48:46;8.8;8.2;7.4
53698;PMS7003;39591;53.952;27.612;2022-08-01T14:53:46;13;11.8;10.2
53698;PMS7003;39591;53.952;27.612;2022-08-01T14:58:46;14.2;13;10.8
53698;PMS7003;39591;53.952;27.612;2022-08-01T15:03:46;16.4;15;12.2
53698;PMS7003;39591;53.952;27.612;2022-08-01T15:08:46;15.2;14.6;11.6
53698;PMS7003;39591;53.952;27.612;2022-08-01T15:13:46;15.2;13.8;10.6
53698;PMS7003;39591;53.952;27.612;2022-08-01T15:18:46;14;13.2;9.6
53698;PMS7003;39591;53.952;27.612;2022-08-01T15:23:46;14.6;12.8;10.2
53698;PMS7003;39591;53.952;27.612;2022-08-01T15:28:46;19.2;18;14.2
53698;PMS7003;39591;53.952;27.612;2022-08-01T15:33:46;13;12;9.8
53698;PMS7003;39591;53.952;27.612;2022-08-01T15:38:46;12.4;10.4;8.8
53698;PMS7003;39591;53.952;27.612;2022-08-01T15:43:46;13.4;12.8;10
53698;PMS7003;39591;53.952;27.612;2022-08-01T15:48:46;10;9.8;7.8
53698;PMS7003;39591;53.952;27.612;2022-08-01T15:53:46;9.8;8.4;7
53698;PMS7003;39591;53.952;27.612;2022-08-01T15:58:46;9.2;8.2;6.8
53698;PMS7003;39591;53.952;27.612;2022-08-01T16:03:46;9;8.2;6.4
53698;PMS7003;39591;53.952;27.612;2022-08-01T16:08:46;10;9.2;7.8
53698;PMS7003;39591;53.952;27.612;2022-08-01T16:13:46;11;10.2;8.4
53698;PMS7003;39591;53.952;27.612;2022-08-01T16:18:46;10.6;10.2;8.6
53698;PMS7003;39591;53.952;27.612;2022-08-01T16:23:46;12.2;10.8;9
53698;PMS7003;39591;53.952;27.612;2022-08-01T16:28:46;13.2;11.6;9.8
53698;PMS7003;39591;53.952;27.612;2022-08-01T16:33:46;13.8;11.8;9.4
53698;PMS7003;39591;53.952;27.612;2022-08-01T16:38:46;15;13.6;10.6
53698;PMS7003;39591;53.952;27.612;2022-08-01T16:43:46;23.6;20.8;15.2
53698;PMS7003;39591;53.952;27.612;2022-08-01T16:48:46;14;12.8;9.8
53698;PMS7003;39591;53.952;27.612;2022-08-01T16:53:46;14.4;13.6;10.4
53698;PMS7003;39591;53.952;27.612;2022-08-01T16:58:46;15;13.8;10.4
53698;PMS7003;39591;53.952;27.612;2022-08-01T17:03:46;14.6;12.8;10.4
53698;PMS7003;39591;53.952;27.612;2022-08-01T17:08:46;13.8;12.6;9.6
53698;PMS7003;39591;53.952;27.612;2022-08-01T17:13:46;15.4;14.2;10.6
53698;PMS7003;39591;53.952;27.612;2022-08-01T17:18:46;15.2;14.2;10.4
53698;PMS7003;39591;53.952;27.612;2022-08-01T17:23:46;13.6;12.4;9.2
53698;PMS7003;39591;53.952;27.612;2022-08-01T17:28:46;16.8;14.2;11.2
53698;PMS7003;39591;53.952;27.612;2022-08-01T17:33:46;13.6;11.6;9.2
53698;PMS7003;39591;53.952;27.612;2022-08-01T17:38:46;13.2;12;9.6
53698;PMS7003;39591;53.952;27.612;2022-08-01T17:43:46;11.6;11.4;8.4
53698;PMS7003;39591;53.952;27.612;2022-08-01T17:48:46;10.8;9.6;7.2
53698;PMS7003;39591;53.952;27.612;2022-08-01T17:53:46;10.2;10;7.6
53698;PMS7003;39591;53.952;27.612;2022-08-01T17:58:46;11;9.4;7.4
53698;PMS7003;39591;53.952;27.612;2022-08-01T18:03:46;10.2;9.2;7.6
53698;PMS7003;39591;53.952;27.612;2022-08-01T18:08:46;11.4;9.4;7.4
53698;PMS7003;39591;53.952;27.612;2022-08-01T18:13:46;9.6;8.8;7.4
53698;PMS7003;39591;53.952;27.612;2022-08-01T18:18:46;10.4;10;7.8
53698;PMS7003;39591;53.952;27.612;2022-08-01T18:23:46;9.8;9;7.2
53698;PMS7003;39591;53.952;27.612;2022-08-01T18:28:46;11.4;10.2;7.6
53698;PMS7003;39591;53.952;27.612;2022-08-01T18:33:46;10.4;9;7
53698;PMS7003;39591;53.952;27.612;2022-08-01T18:38:46;9.6;8.8;7.4
53698;PMS7003;39591;53.952;27.612;2022-08-01T18:43:46;8.2;7;5.8
53698;PMS7003;39591;53.952;27.612;2022-08-01T18:48:46;9.6;8.6;6.6
53698;PMS7003;39591;53.952;27.612;2022-08-01T18:53:46;8.8;8.2;6.6
53698;PMS7003;39591;53.952;27.612;2022-08-01T18:58:46;8.4;7.4;6.4
53698;PMS7003;39591;53.952;27.612;2022-08-01T19:03:46;7.2;6.4;5.8
53698;PMS7003;39591;53.952;27.612;2022-08-01T19:08:46;8.6;7;5.6
53698;PMS7003;39591;53.952;27.612;2022-08-01T19:13:46;6.8;6.6;5.6
53698;PMS7003;39591;53.952;27.612;2022-08-01T19:18:46;7;6.6;5.8
53698;PMS7003;39591;53.952;27.612;2022-08-01T19:23:46;6.6;5.6;5
53698;PMS7003;39591;53.952;27.612;2022-08-01T19:28:46;7;5.8;5
53698;PMS7003;39591;53.952;27.612;2022-08-01T19:33:46;6.6;6.2;5.2
53698;PMS7003;39591;53.952;27.612;2022-08-01T19:38:46;6.2;5.4;4.4
53698;PMS7003;39591;53.952;27.612;2022-08-01T19:43:46;6.8;5.6;4.4
53698;PMS7003;39591;53.952;27.612;2022-08-01T19:48:46;5.6;5.4;4.4
53698;PMS7003;39591;53.952;27.612;2022-08-01T19:53:48;4.8;4.6;3.8
53698;PMS7003;39591;53.952;27.612;2022-08-01T19:58:48;4.8;3.8;3.8
53698;PMS7003;39591;53.952;27.612;2022-08-01T20:03:47;6;5;4
53698;PMS7003;39591;53.952;27.612;2022-08-01T20:08:46;5.8;5;4.4
53698;PMS7003;39591;53.952;27.612;2022-08-01T20:13:46;4.8;3.6;3.4
53698;PMS7003;39591;53.952;27.612;2022-08-01T20:18:46;6.2;5.4;4.4
53698;PMS7003;39591;53.952;27.612;2022-08-01T20:23:46;6;5.8;4.8
53698;PMS7003;39591;53.952;27.612;2022-08-01T20:28:47;5.8;5;4.4
53698;PMS7003;39591;53.952;27.612;2022-08-01T20:33:47;6;5;4.4
53698;PMS7003;39591;53.952;27.612;2022-08-01T20:38:46;6.2;5.8;4.4
53698;PMS7003;39591;53.952;27.612;2022-08-01T20:43:46;5.4;5.2;4.4
53698;PMS7003;39591;53.952;27.612;2022-08-01T20:48:46;6;5.2;4.4
53698;PMS7003;39591;53.952;27.612;2022-08-01T20:53:46;6;5.4;4.4
53698;PMS7003;39591;53.952;27.612;2022-08-01T20:59:18;5.6;4.4;3.6
53698;PMS7003;39591;53.952;27.612;2022-08-01T21:04:01;6;5;4.2
53698;PMS7003;39591;53.952;27.612;2022-08-01T21:08:46;7.2;6.6;5.4
53698;PMS7003;39591;53.952;27.612;2022-08-01T21:13:46;7.4;6.8;5.2
53698;PMS7003;39591;53.952;27.612;2022-08-01T21:18:50;5.6;4.8;4.2
53698;PMS7003;39591;53.952;27.612;2022-08-01T21:24:17;6.8;6.6;5
53698;PMS7003;39591;53.952;27.612;2022-08-01T21:28:47;5.6;5.2;4
53698;PMS7003;39591;53.952;27.612;2022-08-01T21:33:46;6;5.4;4
53698;PMS7003;39591;53.952;27.612;2022-08-01T21:38:46;7;5;4.8
53698;PMS7003;39591;53.952;27.612;2022-08-01T21:43:46;6.8;5.6;4.8
53698;PMS7003;39591;53.952;27.612;2022-08-01T21:48:46;5.8;5.2;4.6
53698;PMS7003;39591;53.952;27.612;2022-08-01T21:53:48;6.2;5.2;4.6
53698;PMS7003;39591;53.952;27.612;2022-08-01T21:58:49;5.8;5.4;4.4
53698;PMS7003;39591;53.952;27.612;2022-08-01T22:03:47;5.8;4.6;3.8
53698;PMS7003;39591;53.952;27.612;2022-08-01T22:08:50;6;5;4.2
53698;PMS7003;39591;53.952;27.612;2022-08-01T22:13:46;6.4;5.2;4.4
53698;PMS7003;39591;53.952;27.612;2022-08-01T22:18:46;6;5.4;4.4
53698;PMS7003;39591;53.952;27.612;2022-08-01T22:23:46;5.6;5;3.8
53698;PMS7003;39591;53.952;27.612;2022-08-01T22:28:47;7.6;6.2;4.6
53698;PMS7003;39591;53.952;27.612;2022-08-01T22:33:46;6.6;6;5.2
53698;PMS7003;39591;53.952;27.612;2022-08-01T22:38:46;8.2;6.6;5.6
53698;PMS7003;39591;53.952;27.612;2022-08-01T22:44:18;7.4;6;5
53698;PMS7003;39591;53.952;27.612;2022-08-01T22:48:49;7.2;5.6;5
53698;PMS7003;39591;53.952;27.612;2022-08-01T22:54:02;6.4;5.4;4.4
53698;PMS7003;39591;53.952;27.612;2022-08-01T22:58:46;7.4;6.4;5.2
53698;PMS7003;39591;53.952;27.612;2022-08-01T23:03:46;5.6;5;4.2
53698;PMS7003;39591;53.952;27.612;2022-08-01T23:08:46;5.4;5.2;4.4
53698;PMS7003;39591;53.952;27.612;2022-08-01T23:13:46;6.4;5.4;4.6
53698;PMS7003;39591;53.952;27.612;2022-08-01T23:18:46;5.8;4.8;4.4
53698;PMS7003;39591;53.952;27.612;2022-08-01T23:23:46;7.2;6.6;4.6
53698;PMS7003;39591;53.952;27.612;2022-08-01T23:28:46;6.6;5.2;4.4
53698;PMS7003;39591;53.952;27.612;2022-08-01T23:33:46;6.2;4.6;4
53698;PMS7003;39591;53.952;27.612;2022-08-01T23:38:46;4.6;4.6;3.8
53698;PMS7003;39591;53.952;27.612;2022-08-01T23:43:46;6.8;5.8;5
53698;PMS7003;39591;53.952;27.612;2022-08-01T23:48:46;6.6;5.4;4.8
53698;PMS7003;39591;53.952;27.612;2022-08-01T23:53:46;8.6;6.8;5.8
53698;PMS7003;39591;53.952;27.612;2022-08-01T23:58:46;6.8;5.8;4.8
